createdAt,value
2019-01-03T00:02:29.945Z,70.40
2019-01-03T00:05:08.172Z,68.90
2019-01-03T00:07:53.981Z,69.80
2019-01-03T00:10:50.370Z,69.70
2019-01-03T00:13:35.423Z,69.50
2019-01-03T00:16:28.345Z,70.70
2019-01-03T00:19:21.418Z,70.30
2019-01-03T00:22:08.445Z,70.20
2019-01-03T00:25:13.883Z,69.90
2019-01-03T00:27:59.731Z,70.90
2019-01-03T00:30:50.469Z,70.80
2019-01-03T00:33:44.453Z,69.80
2019-01-03T00:36:30.716Z,70.80
2019-01-03T00:39:08.305Z,72.40
2019-01-03T00:41:55.347Z,72.40
2019-01-03T00:44:39.457Z,72.10
2019-01-03T00:47:32.502Z,72.80
2019-01-03T00:50:25.344Z,71.30
2019-01-03T00:53:30.156Z,71.50
2019-01-03T00:56:16.210Z,70.90
2019-01-03T00:59:02.199Z,71.00
2019-01-03T01:01:48.042Z,70.50
2019-01-03T01:04:41.395Z,70.00
2019-01-03T01:07:31.522Z,68.60
2019-01-03T01:10:27.506Z,69.00
2019-01-03T01:13:20.337Z,68.10
2019-01-03T01:16:01.727Z,68.10
2019-01-03T01:18:48.711Z,68.50
2019-01-03T01:21:34.353Z,67.20
2019-01-03T01:24:14.233Z,67.10
2019-01-03T01:27:00.156Z,67.30
2019-01-03T01:29:55.436Z,67.20
2019-01-03T01:32:44.035Z,65.00
2019-01-03T01:35:34.026Z,64.80
2019-01-03T01:38:21.222Z,63.70
2019-01-03T01:41:14.007Z,64.60
2019-01-03T01:43:59.873Z,64.60
2019-01-03T01:46:59.649Z,65.00
2019-01-03T01:49:49.065Z,64.50
2019-01-03T01:52:34.997Z,63.30
2019-01-03T01:55:22.040Z,63.30
2019-01-03T01:58:09.023Z,63.20
2019-01-03T02:00:55.064Z,63.60
2019-01-03T02:03:51.120Z,62.80
2019-01-03T02:06:36.690Z,62.70
2019-01-03T02:09:23.419Z,62.50
2019-01-03T02:12:09.309Z,62.50
2019-01-03T02:14:47.577Z,62.90
2019-01-03T02:17:40.691Z,63.40
2019-01-03T02:20:26.258Z,62.60
2019-01-03T02:23:12.139Z,62.00
2019-01-03T02:25:56.443Z,63.20
2019-01-03T02:28:55.561Z,63.40
2019-01-03T02:31:41.110Z,64.10
2019-01-03T02:34:27.207Z,64.30
2019-01-03T02:37:19.130Z,64.80
2019-01-03T02:40:04.971Z,64.40
2019-01-03T02:42:54.990Z,65.50
2019-01-03T02:45:40.887Z,65.20
2019-01-03T02:48:34.165Z,65.50
2019-01-03T02:51:29.202Z,65.80
2019-01-03T02:54:22.074Z,65.10
2019-01-03T02:57:09.491Z,64.90
2019-01-03T03:00:06.800Z,64.70
2019-01-03T03:02:56.888Z,64.90
2019-01-03T03:05:35.086Z,65.40
2019-01-03T03:08:27.953Z,64.70
2019-01-03T03:11:30.256Z,65.40
2019-01-03T03:14:23.546Z,65.00
2019-01-03T03:17:28.716Z,65.00
2019-01-03T03:20:14.348Z,65.20
2019-01-03T03:23:07.362Z,65.20
2019-01-03T03:25:53.566Z,65.80
2019-01-03T03:28:36.419Z,65.50
2019-01-03T03:31:26.435Z,66.10
2019-01-03T03:34:19.680Z,66.20
2019-01-03T03:37:15.005Z,66.20
2019-01-03T03:40:06.166Z,66.30
2019-01-03T03:42:52.542Z,65.40
2019-01-03T03:45:32.032Z,65.50
2019-01-03T03:48:10.802Z,65.70
2019-01-03T03:50:56.424Z,65.20
2019-01-03T03:53:49.206Z,65.00
2019-01-03T03:56:33.122Z,64.30
2019-01-03T03:59:38.536Z,65.00
2019-01-03T04:02:25.838Z,64.60
2019-01-03T04:05:11.364Z,64.70
2019-01-03T04:07:57.039Z,64.00
2019-01-03T04:10:41.207Z,63.50
2019-01-03T04:13:31.228Z,63.60
2019-01-03T04:16:27.714Z,63.60
2019-01-03T04:19:14.705Z,63.70
2019-01-03T04:22:10.610Z,63.80
2019-01-03T04:25:06.636Z,64.40
2019-01-03T04:27:53.655Z,63.70
2019-01-03T04:30:39.350Z,63.70
2019-01-03T04:33:29.571Z,63.60
2019-01-03T04:36:17.886Z,64.50
2019-01-03T04:39:10.674Z,64.50
2019-01-03T04:42:03.486Z,65.40
2019-01-03T04:44:44.053Z,65.10
2019-01-03T04:47:22.408Z,65.30
2019-01-03T04:50:07.806Z,66.10
2019-01-03T04:53:04.038Z,67.10
2019-01-03T04:55:57.328Z,67.30
2019-01-03T04:58:50.062Z,67.50
2019-01-03T05:02:04.590Z,68.40
2019-01-03T05:04:58.668Z,68.30
2019-01-03T05:07:45.709Z,68.00
2019-01-03T05:10:41.753Z,68.50
2019-01-03T05:13:46.707Z,68.20
2019-01-03T05:16:33.734Z,68.20
2019-01-03T05:19:19.300Z,68.10
2019-01-03T05:22:12.600Z,67.20
2019-01-03T05:25:05.932Z,66.60
2019-01-03T05:27:59.250Z,65.10
2019-01-03T05:31:04.754Z,64.70
2019-01-03T05:33:57.703Z,65.10
2019-01-03T05:36:43.662Z,65.50
2019-01-03T05:39:33.441Z,65.00
2019-01-03T05:42:20.604Z,64.70
2019-01-03T05:45:19.430Z,64.80
2019-01-03T05:48:15.418Z,65.30
2019-01-03T05:51:11.754Z,65.70
2019-01-03T05:53:57.720Z,66.10
2019-01-03T05:56:43.731Z,65.70
2019-01-03T05:59:33.750Z,66.40
2019-01-03T06:02:26.624Z,65.50
2019-01-03T06:05:30.881Z,66.30
2019-01-03T06:08:10.360Z,66.30
2019-01-03T06:10:55.993Z,65.40
2019-01-03T06:13:49.286Z,65.50
2019-01-03T06:16:34.702Z,66.20
2019-01-03T06:19:22.892Z,66.10
2019-01-03T06:22:08.774Z,65.40
2019-01-03T06:24:55.806Z,64.20
2019-01-03T06:27:51.418Z,64.70
2019-01-03T06:30:56.850Z,64.80
2019-01-03T06:33:46.748Z,64.70
2019-01-03T06:36:36.323Z,64.80
2019-01-03T06:39:32.567Z,64.50
2019-01-03T06:42:15.714Z,64.60
2019-01-03T06:45:08.546Z,65.20
2019-01-03T06:47:54.121Z,64.70
2019-01-03T06:50:41.151Z,65.10
2019-01-03T06:53:40.263Z,65.20
2019-01-03T06:56:25.922Z,65.80
2019-01-03T06:59:11.315Z,65.70
2019-01-03T07:02:13.670Z,65.00
2019-01-03T07:05:09.551Z,65.00
2019-01-03T07:07:56.542Z,64.50
2019-01-03T07:10:58.625Z,65.90
2019-01-03T07:13:44.298Z,65.40
2019-01-03T07:16:29.898Z,66.70
2019-01-03T07:19:29.247Z,67.20
2019-01-03T07:22:16.239Z,68.20
2019-01-03T07:25:19.387Z,68.20
2019-01-03T07:28:24.419Z,68.70
2019-01-03T07:31:11.516Z,69.50
2019-01-03T07:33:57.356Z,70.00
2019-01-03T07:36:40.062Z,69.00
2019-01-03T07:39:25.610Z,68.00
2019-01-03T07:42:15.688Z,67.20
2019-01-03T07:45:21.025Z,66.30
2019-01-03T07:48:15.142Z,64.70
2019-01-03T07:51:00.564Z,64.20
2019-01-03T07:53:46.168Z,63.70
2019-01-03T07:56:36.312Z,64.10
2019-01-03T07:59:23.373Z,64.40
2019-01-03T08:02:09.016Z,64.00
2019-01-03T08:05:07.746Z,64.20
2019-01-03T08:08:00.849Z,63.60
2019-01-03T08:10:50.850Z,63.10
2019-01-03T08:13:31.882Z,63.00
2019-01-03T08:16:31.234Z,62.50
2019-01-03T08:19:24.035Z,63.30
2019-01-03T08:22:09.725Z,63.20
2019-01-03T08:24:55.662Z,62.40
2019-01-03T08:27:48.749Z,62.10
2019-01-03T08:30:29.486Z,62.20
2019-01-03T08:33:21.379Z,60.90
2019-01-03T08:36:08.382Z,60.30
2019-01-03T08:38:58.440Z,59.90
2019-01-03T08:41:46.901Z,60.00
2019-01-03T08:44:33.989Z,60.30
2019-01-03T08:47:19.829Z,60.40
2019-01-03T08:50:09.886Z,59.90
2019-01-03T08:52:50.958Z,58.90
2019-01-03T08:55:56.130Z,58.40
2019-01-03T08:58:55.257Z,58.10
2019-01-03T09:01:57.206Z,57.10
2019-01-03T09:04:44.189Z,55.90
2019-01-03T09:07:29.741Z,55.10
2019-01-03T09:10:15.691Z,55.10
2019-01-03T09:13:01.426Z,54.50
2019-01-03T09:16:00.567Z,53.10
2019-01-03T09:18:59.885Z,52.80
2019-01-03T09:21:53.317Z,51.50
2019-01-03T09:24:39.229Z,51.40
2019-01-03T09:27:25.269Z,50.70
2019-01-03T09:30:30.621Z,50.90
2019-01-03T09:33:26.681Z,50.20
2019-01-03T09:36:09.734Z,49.60
2019-01-03T09:39:11.798Z,49.50
2019-01-03T09:42:17.089Z,48.40
2019-01-03T09:44:44.601Z,48.20
2019-01-03T09:47:12.498Z,46.60
2019-01-03T09:49:40.029Z,46.00
2019-01-03T09:52:07.645Z,45.80
2019-01-03T09:54:35.150Z,46.40
2019-01-03T09:57:02.687Z,47.50
2019-01-03T09:59:30.181Z,47.30
2019-01-03T10:01:57.682Z,45.90
2019-01-03T10:04:25.245Z,44.90
2019-01-03T10:06:52.725Z,44.90
2019-01-03T10:09:20.245Z,44.50
2019-01-03T10:11:47.765Z,44.20
2019-01-03T10:14:15.245Z,44.30
2019-01-03T10:16:42.741Z,44.60
2019-01-03T10:19:10.245Z,45.10
2019-01-03T10:21:37.745Z,45.20
2019-01-03T10:24:05.266Z,45.10
2019-01-03T10:26:32.861Z,44.80
2019-01-03T10:29:00.345Z,45.10
2019-01-03T10:31:27.877Z,45.10
2019-01-03T10:33:55.389Z,45.40
2019-01-03T10:36:24.322Z,44.00
2019-01-03T10:38:52.089Z,44.20
2019-01-03T10:41:19.602Z,44.50
2019-01-03T10:43:47.138Z,44.30
2019-01-03T10:46:14.625Z,45.50
2019-01-03T10:48:42.161Z,45.20
2019-01-03T10:51:09.687Z,45.90
2019-01-03T10:53:37.189Z,44.90
2019-01-03T10:56:04.696Z,45.30
2019-01-03T10:58:32.237Z,46.00
2019-01-03T11:00:59.758Z,46.50
2019-01-03T11:03:27.244Z,46.70
2019-01-03T11:05:54.781Z,46.30
2019-01-03T11:08:22.275Z,46.80
2019-01-03T11:10:49.773Z,47.70
2019-01-03T11:13:17.314Z,48.00
2019-01-03T11:15:44.816Z,48.70
2019-01-03T11:18:12.315Z,49.30
2019-01-03T11:20:39.826Z,48.70
2019-01-03T11:23:07.329Z,48.80
2019-01-03T11:25:34.808Z,49.50
2019-01-03T11:28:02.348Z,49.40
2019-01-03T11:30:29.885Z,49.20
2019-01-03T11:32:57.399Z,49.40
2019-01-03T11:35:24.937Z,50.50
2019-01-03T11:37:52.428Z,49.60
2019-01-03T11:40:19.913Z,49.60
2019-01-03T11:42:47.433Z,50.00
2019-01-03T11:45:14.949Z,50.10
2019-01-03T11:47:42.433Z,50.50
2019-01-03T11:50:09.949Z,50.60
2019-01-03T11:52:37.433Z,50.90
2019-01-03T11:55:04.933Z,50.50
2019-01-03T11:57:32.465Z,50.70
2019-01-03T12:00:01.229Z,50.50
2019-01-03T12:02:28.711Z,50.60
2019-01-03T12:04:56.229Z,51.50
2019-01-03T12:07:23.705Z,51.80
2019-01-03T12:09:51.193Z,51.90
2019-01-03T12:12:18.702Z,51.40
2019-01-03T12:14:46.186Z,51.70
2019-01-03T12:17:13.672Z,52.00
2019-01-03T12:19:41.189Z,52.10
2019-01-03T12:22:08.673Z,51.60
2019-01-03T12:24:36.169Z,51.90
2019-01-03T12:27:03.702Z,51.60
2019-01-03T12:29:31.189Z,51.70
2019-01-03T12:31:58.688Z,51.40
2019-01-03T12:34:26.182Z,51.70
2019-01-03T12:36:53.681Z,51.40
2019-01-03T12:39:21.157Z,51.70
2019-01-03T12:41:48.677Z,52.10
2019-01-03T12:44:16.180Z,51.80
2019-01-03T12:46:43.695Z,52.30
2019-01-03T12:49:11.179Z,52.80
2019-01-03T12:51:38.797Z,52.60
2019-01-03T12:54:06.322Z,51.80
2019-01-03T12:56:33.905Z,51.80
2019-01-03T12:59:01.368Z,51.60
2019-01-03T13:01:29.001Z,51.90
2019-01-03T13:03:56.497Z,52.30
2019-01-03T13:06:23.989Z,52.70
2019-01-03T13:08:51.499Z,52.70
2019-01-03T13:11:18.984Z,52.80
2019-01-03T13:13:46.499Z,52.90
2019-01-03T13:16:14.067Z,52.40
2019-01-03T13:18:41.565Z,52.50
2019-01-03T13:21:09.077Z,52.20
2019-01-03T13:23:36.667Z,52.10
2019-01-03T13:26:04.189Z,52.70
2019-01-03T13:28:31.758Z,52.50
2019-01-03T13:30:59.329Z,53.20
2019-01-03T13:33:26.961Z,53.10
2019-01-03T13:35:54.471Z,53.40
2019-01-03T13:38:22.005Z,53.40
2019-01-03T13:40:49.527Z,53.60
2019-01-03T13:43:17.181Z,53.70
2019-01-03T13:45:44.715Z,54.00
2019-01-03T13:48:12.204Z,54.30
2019-01-03T13:50:39.781Z,55.00
2019-01-03T13:53:07.342Z,54.50
2019-01-03T13:55:35.013Z,54.20
2019-01-03T13:58:02.529Z,54.40
2019-01-03T14:00:30.084Z,54.60
2019-01-03T14:02:57.804Z,54.60
2019-01-03T14:05:25.323Z,54.90
2019-01-03T14:07:52.877Z,54.60
2019-01-03T14:10:20.473Z,54.60
2019-01-03T14:12:47.948Z,55.10
2019-01-03T14:15:15.641Z,54.80
2019-01-03T14:17:43.127Z,55.30
2019-01-03T14:20:12.392Z,55.00
2019-01-03T14:22:39.973Z,54.70
2019-01-03T14:25:07.489Z,54.40
2019-01-03T14:27:35.022Z,54.10
2019-01-03T14:30:02.665Z,54.30
2019-01-03T14:32:30.219Z,54.90
2019-01-03T14:34:57.775Z,54.40
2019-01-03T14:37:25.307Z,54.40
2019-01-03T14:39:52.898Z,54.30
2019-01-03T14:42:20.382Z,54.80
2019-01-03T14:44:47.935Z,54.90
2019-01-03T14:47:15.360Z,55.00
2019-01-03T14:49:42.815Z,55.20
2019-01-03T14:52:10.361Z,55.30
2019-01-03T14:54:37.770Z,55.30
2019-01-03T14:57:05.241Z,55.10
2019-01-03T14:59:32.757Z,55.10
2019-01-03T15:02:00.241Z,54.70
2019-01-03T15:04:27.699Z,55.10
2019-01-03T15:06:55.140Z,55.20
2019-01-03T15:09:22.618Z,55.10
2019-01-03T15:11:50.095Z,55.20
2019-01-03T15:14:17.834Z,55.20
2019-01-03T15:16:45.268Z,54.80
2019-01-03T15:19:12.733Z,55.20
2019-01-03T15:21:40.211Z,55.20
2019-01-03T15:24:07.701Z,55.20
2019-01-03T15:26:35.270Z,55.20
2019-01-03T15:29:02.794Z,55.20
2019-01-03T15:31:30.270Z,55.20
2019-01-03T15:33:57.772Z,55.70
2019-01-03T15:36:25.193Z,55.20
2019-01-03T15:38:52.669Z,55.00
2019-01-03T15:41:20.181Z,55.20
2019-01-03T15:43:47.687Z,55.20
2019-01-03T15:46:15.246Z,54.90
2019-01-03T15:48:42.841Z,55.00
2019-01-03T16:19:38.953Z,54.30
2019-01-03T16:22:06.500Z,54.00
2019-01-03T16:24:34.056Z,53.60
2019-01-03T16:27:01.663Z,53.90
2019-01-03T16:29:29.383Z,54.30
2019-01-03T16:31:56.945Z,54.00
2019-01-03T16:34:24.562Z,54.70
2019-01-03T16:36:52.122Z,54.90
2019-01-03T16:39:19.649Z,54.80
2019-01-03T16:41:47.272Z,55.00
2019-01-03T16:44:14.863Z,54.60
2019-01-03T16:46:42.706Z,54.70
2019-01-03T16:49:10.303Z,54.20
2019-01-03T16:51:37.858Z,54.30
2019-01-03T16:54:05.417Z,54.90
2019-01-03T16:56:33.033Z,55.10
2019-01-03T16:59:00.583Z,55.20
2019-01-03T17:01:29.849Z,55.10
2019-01-03T17:03:57.437Z,55.50
2019-01-03T17:06:24.982Z,55.20
2019-01-03T17:08:52.555Z,55.70
2019-01-03T17:11:20.146Z,56.00
2019-01-03T17:13:47.682Z,55.90
2019-01-03T17:16:15.243Z,55.70
2019-01-03T17:18:42.811Z,56.20
2019-01-03T17:21:10.459Z,56.80
2019-01-03T17:23:37.992Z,56.50
2019-01-03T17:26:05.586Z,56.50
2019-01-03T17:28:33.131Z,56.80
2019-01-03T17:31:00.713Z,56.70
2019-01-03T17:33:28.272Z,56.70
2019-01-03T17:35:55.764Z,56.20
2019-01-03T17:38:23.298Z,56.80
2019-01-03T17:40:50.898Z,56.70
2019-01-03T17:43:18.435Z,56.80
2019-01-03T17:45:45.975Z,56.60
2019-01-03T17:48:13.566Z,56.90
2019-01-03T17:50:41.084Z,56.80
2019-01-03T17:53:08.628Z,56.80
2019-01-03T17:55:36.335Z,57.30
2019-01-03T17:58:05.081Z,57.30
2019-01-03T18:00:32.706Z,57.10
2019-01-03T18:03:00.284Z,57.00
2019-01-03T18:05:27.800Z,57.10
2019-01-03T18:07:55.330Z,57.40
2019-01-03T18:10:22.936Z,57.20
2019-01-03T18:12:50.501Z,57.30
2019-01-03T18:15:18.042Z,57.50
2019-01-03T18:17:45.623Z,57.80
2019-01-03T18:20:15.258Z,57.80
2019-01-03T18:22:42.905Z,58.30
2019-01-03T18:25:10.495Z,57.60
2019-01-03T18:27:38.075Z,57.40
2019-01-03T18:30:06.935Z,57.50
2019-01-03T18:32:34.605Z,57.70
2019-01-03T18:35:02.144Z,57.60
2019-01-03T18:37:29.670Z,57.60
2019-01-03T18:39:57.290Z,57.60
2019-01-03T18:42:24.890Z,57.70
2019-01-03T18:44:52.635Z,58.40
2019-01-03T18:47:20.225Z,58.20
2019-01-03T18:49:47.758Z,58.10
2019-01-03T18:52:15.294Z,58.20
2019-01-03T18:54:42.884Z,58.10
2019-01-03T18:57:10.408Z,58.20
2019-01-03T18:59:37.963Z,58.40
2019-01-03T19:02:05.537Z,58.70
2019-01-03T19:04:33.105Z,58.70
2019-01-03T19:07:00.677Z,59.00
2019-01-03T19:09:28.274Z,58.80
2019-01-03T19:11:55.798Z,58.90
2019-01-03T19:14:23.360Z,58.80
2019-01-03T19:16:50.996Z,58.90
2019-01-03T19:19:18.609Z,59.10
2019-01-03T19:21:46.148Z,59.40
2019-01-03T19:24:13.710Z,59.00
2019-01-03T19:26:41.315Z,59.10
2019-01-03T19:29:08.842Z,59.10
2019-01-03T19:31:36.390Z,58.90
2019-01-03T19:34:03.950Z,59.00
2019-01-03T19:36:31.708Z,59.20
2019-01-03T19:39:00.295Z,58.90
2019-01-03T19:41:27.902Z,59.10
2019-01-03T19:43:55.487Z,59.50
2019-01-03T19:46:24.623Z,59.30
2019-01-03T19:48:52.621Z,59.60
2019-01-03T19:51:22.136Z,59.50
2019-01-03T19:53:50.589Z,59.20
2019-01-03T19:56:18.177Z,59.00
2019-01-03T19:58:45.776Z,59.40
2019-01-03T20:01:13.304Z,59.10
2019-01-03T20:03:40.919Z,59.20
2019-01-03T20:06:08.446Z,60.30
2019-01-03T20:08:35.974Z,59.90
2019-01-03T20:11:03.563Z,60.00
2019-01-03T20:13:31.138Z,60.20
2019-01-03T20:15:58.654Z,59.80
2019-01-03T20:18:26.368Z,59.80
2019-01-03T20:20:54.029Z,60.80
2019-01-03T20:23:21.631Z,60.40
2019-01-03T20:25:49.276Z,60.30
2019-01-03T20:28:16.882Z,60.20
2019-01-03T20:30:44.463Z,60.40
2019-01-03T20:33:12.048Z,60.40
2019-01-03T20:35:39.586Z,60.40
2019-01-03T20:38:07.139Z,60.30
2019-01-03T20:40:34.794Z,60.70
2019-01-03T20:43:02.430Z,60.90
2019-01-03T20:45:30.098Z,61.10
2019-01-03T20:47:58.738Z,61.30
2019-01-03T20:50:28.528Z,61.20
2019-01-03T20:52:56.188Z,60.70
2019-01-03T20:55:23.818Z,60.60
2019-01-03T20:57:51.351Z,61.30
2019-01-03T21:00:18.959Z,61.90
2019-01-03T21:02:46.522Z,61.00
2019-01-03T21:05:14.065Z,61.20
2019-01-03T21:07:41.585Z,61.60
2019-01-03T21:10:10.659Z,61.40
2019-01-03T21:12:38.214Z,61.00
2019-01-03T21:15:08.366Z,61.60
2019-01-03T21:17:35.968Z,61.60
2019-01-03T21:20:05.134Z,62.10
2019-01-03T21:22:32.684Z,61.90
2019-01-03T21:25:00.274Z,62.20
2019-01-03T21:27:27.975Z,62.30
2019-01-03T21:29:55.542Z,62.00
2019-01-03T21:32:23.128Z,62.40
2019-01-03T21:34:50.656Z,62.20
2019-01-03T21:37:18.188Z,62.00
2019-01-03T21:39:45.758Z,62.00
2019-01-03T21:42:13.282Z,62.60
2019-01-03T21:44:40.797Z,62.80
2019-01-03T21:47:08.358Z,62.40
2019-01-03T21:49:35.884Z,62.30
2019-01-03T21:52:03.411Z,63.00
2019-01-03T21:54:31.006Z,62.50
2019-01-03T21:56:58.547Z,62.60
2019-01-03T21:59:26.074Z,62.30
2019-01-03T22:01:55.941Z,62.70
2019-01-03T22:04:23.500Z,62.90
2019-01-03T22:06:51.043Z,62.90
2019-01-03T22:09:18.634Z,62.80
2019-01-03T22:11:46.172Z,62.80
2019-01-03T22:14:13.742Z,62.60
2019-01-03T22:16:41.374Z,62.90
2019-01-03T22:19:08.902Z,63.30
2019-01-03T22:21:36.485Z,63.30
2019-01-03T22:24:04.071Z,63.40
2019-01-03T22:26:31.595Z,63.30
2019-01-03T22:28:59.531Z,63.10
2019-01-03T22:31:27.290Z,63.30
2019-01-03T22:33:54.827Z,63.00
2019-01-03T22:36:22.521Z,62.90
2019-01-03T22:38:50.064Z,63.20
2019-01-03T22:41:17.608Z,63.40
2019-01-03T22:43:45.178Z,63.60
2019-01-03T22:46:12.702Z,64.10
2019-01-03T22:48:40.418Z,63.00
2019-01-03T22:51:08.008Z,63.00
2019-01-03T22:53:35.518Z,62.90
2019-01-03T22:56:03.080Z,63.50
2019-01-03T22:58:30.676Z,63.60
2019-01-03T23:00:58.629Z,63.60
2019-01-03T23:03:26.158Z,63.80
2019-01-03T23:05:53.677Z,63.50
2019-01-03T23:08:21.262Z,63.10
2019-01-03T23:10:48.782Z,63.90
2019-01-03T23:13:16.298Z,63.10
2019-01-03T23:15:43.928Z,63.60
2019-01-03T23:18:11.434Z,64.00
2019-01-03T23:20:38.972Z,63.60
2019-01-03T23:23:06.586Z,63.30
2019-01-03T23:25:34.134Z,63.20
2019-01-03T23:28:01.646Z,64.00
2019-01-03T23:30:29.257Z,64.00
2019-01-03T23:32:56.750Z,63.10
2019-01-03T23:35:24.294Z,63.10
2019-01-03T23:37:51.952Z,63.20
2019-01-03T23:40:19.521Z,63.20
2019-01-03T23:42:47.022Z,63.90
2019-01-03T23:45:24.706Z,63.60
2019-01-03T23:47:54.147Z,63.10
2019-01-03T23:50:24.680Z,63.10
2019-01-03T23:52:52.250Z,63.80
2019-01-03T23:55:21.346Z,63.70
2019-01-03T23:57:48.867Z,63.80
